Main page
Satellite images 15-day forecastsClimateMarine weather Cyclones Lightning AirportsFAQ Newsletter About
Weather : Europe Africa North America South America Asia Australia-Oceania Others
Languages Contact

Gloucester, England

Gloucestershire Airport Staverton

latitude: 51-54N, longitude: 002-10W, elevation: 29 m


METAR: EGBJ 021820Z 09003KT 9999 SCT042 21/11 Q1022
short-TAF: EGBJ 021358Z 0215/0219 07005KT 9999 SCT025
long-TAF: missing

Time: 05:34 (04:34 UTC)

Current weather observation

The report was made 10 hours and 14 minutes ago, at 18:20 UTC  
Wind 03 kt from the East
Temperature 21°C
Humidity 53%
Pressure 1022 hPa
Visibility 10 km or more
Scattered clouds at a height of 4200 ft

Change units

Forecast

The report was made 14 hours and 5 minutes ago, at 14:29 UTC  
Forecast valid from 02 at 15 UTC to 02 at 19 UTC
Wind 05 kt from the East/Northeast
Visibility 10 km or more
Scattered clouds at a height of 2500 ft
The information on this site is subject to a disclaimer
Weather : Europe Africa North America South America Asia Australia-Oceania Others
Satellite images 15-day forecastsClimateMarine weather Cyclones Lightning AirportsFAQ Languages Contact Newsletter About